HPA weather

Reforma 180 Heliport
Cuauhtémoc, Distrito Federal, Mexico

Public forecast

Using degrees Celsius for public forecast. Weather courtesy of forecast.io.

METAR (pilot weather report)

Closest report is Licenciado Benito Juarez International Airport, 5.0 nm (9.3 km) E. Retrieved 2019/08/23 06:44 UTC (0 seconds ago):

MMMX 230644Z 05004KT 6SM BKN020 OVC080 17/11 A3034 NOSIG RMK 8/57/ HZY

TAF (pilot weather forecast)

Closest forecast is Licenciado Benito Juarez International Airport, 5.0 nm (9.3 km) E. Retrieved 2019/08/23 06:26 UTC (0 seconds ago):

TAF MMMX 230419Z 2306/2412 33005KT 6SM HZ SCT020 SCT080 BKN200 TX25/2321Z TN14/2312Z TEMPO 2306/2310 6SM RA BKN020CB FM231800 03010KT P6SM SCT030 BKN100 BKN200 TEMPO 2322/2402 5SM TSRA BKN020CB